sensor_id;sensor_type;location;lat;lon;timestamp;P1;durP1;ratioP1;P2;durP2;ratioP2
44078;SDS011;29744;49.078;12.878;2023-11-21T00:03:51;0.55;;;0.40;;
44078;SDS011;29744;49.078;12.878;2023-11-21T00:08:54;0.43;;;0.32;;
44078;SDS011;29744;49.078;12.878;2023-11-21T00:13:54;0.73;;;0.40;;
44078;SDS011;29744;49.078;12.878;2023-11-21T00:18:55;0.40;;;0.40;;
44078;SDS011;29744;49.078;12.878;2023-11-21T00:23:55;0.60;;;0.20;;
44078;SDS011;29744;49.078;12.878;2023-11-21T00:28:56;1.02;;;0.50;;
44078;SDS011;29744;49.078;12.878;2023-11-21T00:33:56;0.43;;;0.35;;
44078;SDS011;29744;49.078;12.878;2023-11-21T00:38:56;0.82;;;0.30;;
44078;SDS011;29744;49.078;12.878;2023-11-21T00:43:57;0.32;;;0.30;;
44078;SDS011;29744;49.078;12.878;2023-11-21T00:48:57;0.30;;;0.30;;
44078;SDS011;29744;49.078;12.878;2023-11-21T00:53:58;0.63;;;0.50;;
44078;SDS011;29744;49.078;12.878;2023-11-21T00:58:58;1.30;;;0.30;;
44078;SDS011;29744;49.078;12.878;2023-11-21T01:03:58;0.60;;;0.40;;
44078;SDS011;29744;49.078;12.878;2023-11-21T01:08:59;0.60;;;0.40;;
44078;SDS011;29744;49.078;12.878;2023-11-21T01:13:59;0.80;;;0.40;;
44078;SDS011;29744;49.078;12.878;2023-11-21T01:19:00;0.70;;;0.40;;
44078;SDS011;29744;49.078;12.878;2023-11-21T01:24:01;0.63;;;0.40;;
44078;SDS011;29744;49.078;12.878;2023-11-21T01:29:02;0.50;;;0.40;;
44078;SDS011;29744;49.078;12.878;2023-11-21T01:34:03;0.43;;;0.30;;
44078;SDS011;29744;49.078;12.878;2023-11-21T01:39:04;0.35;;;0.30;;
44078;SDS011;29744;49.078;12.878;2023-11-21T01:44:08;1.00;;;0.50;;
44078;SDS011;29744;49.078;12.878;2023-11-21T01:49:09;0.43;;;0.30;;
44078;SDS011;29744;49.078;12.878;2023-11-21T01:54:13;0.43;;;0.30;;
44078;SDS011;29744;49.078;12.878;2023-11-21T01:59:19;0.77;;;0.40;;
44078;SDS011;29744;49.078;12.878;2023-11-21T02:04:23;0.30;;;0.30;;
44078;SDS011;29744;49.078;12.878;2023-11-21T02:09:25;0.93;;;0.43;;
44078;SDS011;29744;49.078;12.878;2023-11-21T02:14:27;0.30;;;0.30;;
44078;SDS011;29744;49.078;12.878;2023-11-21T02:19:27;0.17;;;0.17;;
44078;SDS011;29744;49.078;12.878;2023-11-21T02:24:29;0.40;;;0.40;;
44078;SDS011;29744;49.078;12.878;2023-11-21T02:29:30;0.40;;;0.32;;
44078;SDS011;29744;49.078;12.878;2023-11-21T02:34:30;0.22;;;0.22;;
44078;SDS011;29744;49.078;12.878;2023-11-21T02:39:30;0.40;;;0.30;;
44078;SDS011;29744;49.078;12.878;2023-11-21T02:44:31;0.45;;;0.30;;
44078;SDS011;29744;49.078;12.878;2023-11-21T02:49:32;0.50;;;0.20;;
44078;SDS011;29744;49.078;12.878;2023-11-21T02:54:34;1.08;;;0.50;;
44078;SDS011;29744;49.078;12.878;2023-11-21T02:59:36;0.90;;;0.50;;
44078;SDS011;29744;49.078;12.878;2023-11-21T03:04:36;0.35;;;0.20;;
44078;SDS011;29744;49.078;12.878;2023-11-21T03:09:37;0.93;;;0.40;;
44078;SDS011;29744;49.078;12.878;2023-11-21T03:14:37;0.38;;;0.30;;
44078;SDS011;29744;49.078;12.878;2023-11-21T03:19:38;0.45;;;0.20;;
44078;SDS011;29744;49.078;12.878;2023-11-21T03:24:39;0.50;;;0.30;;
44078;SDS011;29744;49.078;12.878;2023-11-21T03:29:39;0.35;;;0.30;;
44078;SDS011;29744;49.078;12.878;2023-11-21T03:34:53;0.43;;;0.30;;
44078;SDS011;29744;49.078;12.878;2023-11-21T03:39:56;0.52;;;0.30;;
44078;SDS011;29744;49.078;12.878;2023-11-21T03:44:56;0.40;;;0.25;;
44078;SDS011;29744;49.078;12.878;2023-11-21T03:49:57;0.17;;;0.17;;
44078;SDS011;29744;49.078;12.878;2023-11-21T03:54:57;0.68;;;0.38;;
44078;SDS011;29744;49.078;12.878;2023-11-21T03:59:57;0.45;;;0.22;;
44078;SDS011;29744;49.078;12.878;2023-11-21T04:04:58;0.20;;;0.20;;
44078;SDS011;29744;49.078;12.878;2023-11-21T04:09:59;0.50;;;0.40;;
44078;SDS011;29744;49.078;12.878;2023-11-21T04:14:59;0.40;;;0.30;;
44078;SDS011;29744;49.078;12.878;2023-11-21T04:20:00;0.17;;;0.17;;
44078;SDS011;29744;49.078;12.878;2023-11-21T04:25:00;0.20;;;0.20;;
44078;SDS011;29744;49.078;12.878;2023-11-21T04:30:01;0.50;;;0.30;;
44078;SDS011;29744;49.078;12.878;2023-11-21T04:35:02;0.30;;;0.20;;
44078;SDS011;29744;49.078;12.878;2023-11-21T04:40:04;0.40;;;0.30;;
44078;SDS011;29744;49.078;12.878;2023-11-21T04:45:06;0.40;;;0.40;;
44078;SDS011;29744;49.078;12.878;2023-11-21T04:50:11;0.38;;;0.30;;
44078;SDS011;29744;49.078;12.878;2023-11-21T04:55:11;0.65;;;0.40;;
44078;SDS011;29744;49.078;12.878;2023-11-21T05:00:12;0.52;;;0.30;;
44078;SDS011;29744;49.078;12.878;2023-11-21T05:05:13;0.50;;;0.40;;
44078;SDS011;29744;49.078;12.878;2023-11-21T05:10:14;0.35;;;0.20;;
44078;SDS011;29744;49.078;12.878;2023-11-21T05:15:15;0.52;;;0.30;;
44078;SDS011;29744;49.078;12.878;2023-11-21T05:20:16;0.30;;;0.30;;
44078;SDS011;29744;49.078;12.878;2023-11-21T05:25:21;0.20;;;0.20;;
44078;SDS011;29744;49.078;12.878;2023-11-21T05:30:21;0.30;;;0.30;;
44078;SDS011;29744;49.078;12.878;2023-11-21T05:35:22;0.25;;;0.25;;
44078;SDS011;29744;49.078;12.878;2023-11-21T05:40:22;0.20;;;0.20;;
44078;SDS011;29744;49.078;12.878;2023-11-21T05:45:22;0.20;;;0.10;;
44078;SDS011;29744;49.078;12.878;2023-11-21T05:50:23;0.30;;;0.20;;
44078;SDS011;29744;49.078;12.878;2023-11-21T05:55:23;0.40;;;0.20;;
44078;SDS011;29744;49.078;12.878;2023-11-21T06:00:25;0.40;;;0.30;;
44078;SDS011;29744;49.078;12.878;2023-11-21T06:05:28;0.40;;;0.30;;
44078;SDS011;29744;49.078;12.878;2023-11-21T06:10:28;0.40;;;0.25;;
44078;SDS011;29744;49.078;12.878;2023-11-21T06:15:29;0.20;;;0.20;;
44078;SDS011;29744;49.078;12.878;2023-11-21T06:20:29;0.40;;;0.30;;
44078;SDS011;29744;49.078;12.878;2023-11-21T06:25:30;0.20;;;0.20;;
44078;SDS011;29744;49.078;12.878;2023-11-21T06:30:33;0.22;;;0.20;;
44078;SDS011;29744;49.078;12.878;2023-11-21T06:35:33;0.30;;;0.30;;
44078;SDS011;29744;49.078;12.878;2023-11-21T06:40:34;0.22;;;0.17;;
44078;SDS011;29744;49.078;12.878;2023-11-21T06:45:35;0.50;;;0.30;;
44078;SDS011;29744;49.078;12.878;2023-11-21T06:50:35;0.38;;;0.20;;
44078;SDS011;29744;49.078;12.878;2023-11-21T06:55:36;0.22;;;0.20;;
44078;SDS011;29744;49.078;12.878;2023-11-21T07:00:36;0.20;;;0.20;;
44078;SDS011;29744;49.078;12.878;2023-11-21T07:05:37;0.20;;;0.20;;
44078;SDS011;29744;49.078;12.878;2023-11-21T07:10:37;0.20;;;0.20;;
44078;SDS011;29744;49.078;12.878;2023-11-21T07:15:38;0.30;;;0.25;;
44078;SDS011;29744;49.078;12.878;2023-11-21T07:20:38;1.42;;;0.38;;
44078;SDS011;29744;49.078;12.878;2023-11-21T07:25:38;2.40;;;0.40;;
44078;SDS011;29744;49.078;12.878;2023-11-21T07:30:41;1.38;;;0.43;;
44078;SDS011;29744;49.078;12.878;2023-11-21T07:35:43;0.70;;;0.40;;
44078;SDS011;29744;49.078;12.878;2023-11-21T07:40:43;0.47;;;0.30;;
44078;SDS011;29744;49.078;12.878;2023-11-21T07:45:43;1.20;;;0.30;;
44078;SDS011;29744;49.078;12.878;2023-11-21T07:50:43;0.32;;;0.32;;
44078;SDS011;29744;49.078;12.878;2023-11-21T07:55:44;1.02;;;0.50;;
44078;SDS011;29744;49.078;12.878;2023-11-21T08:00:45;1.85;;;0.57;;
44078;SDS011;29744;49.078;12.878;2023-11-21T08:05:45;0.95;;;0.50;;
44078;SDS011;29744;49.078;12.878;2023-11-21T08:10:45;0.82;;;0.63;;
44078;SDS011;29744;49.078;12.878;2023-11-21T08:15:56;0.98;;;0.52;;
44078;SDS011;29744;49.078;12.878;2023-11-21T08:21:01;0.95;;;0.52;;
44078;SDS011;29744;49.078;12.878;2023-11-21T08:26:04;0.63;;;0.40;;
44078;SDS011;29744;49.078;12.878;2023-11-21T08:31:05;0.88;;;0.52;;
44078;SDS011;29744;49.078;12.878;2023-11-21T08:36:09;1.92;;;0.60;;
44078;SDS011;29744;49.078;12.878;2023-11-21T08:41:11;3.97;;;0.82;;
44078;SDS011;29744;49.078;12.878;2023-11-21T08:46:11;2.60;;;0.75;;
44078;SDS011;29744;49.078;12.878;2023-11-21T08:51:12;1.80;;;0.60;;
44078;SDS011;29744;49.078;12.878;2023-11-21T08:56:14;1.42;;;0.65;;
44078;SDS011;29744;49.078;12.878;2023-11-21T09:01:14;1.50;;;0.60;;
44078;SDS011;29744;49.078;12.878;2023-11-21T09:06:14;2.53;;;0.60;;
44078;SDS011;29744;49.078;12.878;2023-11-21T09:11:15;2.53;;;0.60;;
44078;SDS011;29744;49.078;12.878;2023-11-21T09:16:15;1.52;;;0.68;;
44078;SDS011;29744;49.078;12.878;2023-11-21T09:21:16;3.00;;;0.80;;
44078;SDS011;29744;49.078;12.878;2023-11-21T09:26:16;1.95;;;0.70;;
44078;SDS011;29744;49.078;12.878;2023-11-21T09:31:17;1.88;;;0.60;;
44078;SDS011;29744;49.078;12.878;2023-11-21T09:36:17;1.80;;;0.75;;
44078;SDS011;29744;49.078;12.878;2023-11-21T09:41:23;1.90;;;0.80;;
44078;SDS011;29744;49.078;12.878;2023-11-21T09:46:35;1.55;;;0.77;;
44078;SDS011;29744;49.078;12.878;2023-11-21T09:51:39;3.22;;;1.00;;
44078;SDS011;29744;49.078;12.878;2023-11-21T09:56:43;2.05;;;0.73;;
44078;SDS011;29744;49.078;12.878;2023-11-21T10:01:43;0.88;;;0.60;;
44078;SDS011;29744;49.078;12.878;2023-11-21T10:06:45;2.90;;;0.70;;
44078;SDS011;29744;49.078;12.878;2023-11-21T10:11:47;1.05;;;0.70;;
44078;SDS011;29744;49.078;12.878;2023-11-21T10:16:49;2.17;;;0.80;;
44078;SDS011;29744;49.078;12.878;2023-11-21T10:21:50;1.48;;;0.70;;
44078;SDS011;29744;49.078;12.878;2023-11-21T10:26:51;1.48;;;0.65;;
44078;SDS011;29744;49.078;12.878;2023-11-21T10:31:53;1.80;;;0.73;;
44078;SDS011;29744;49.078;12.878;2023-11-21T10:36:57;3.45;;;0.90;;
44078;SDS011;29744;49.078;12.878;2023-11-21T10:41:58;2.90;;;1.33;;
44078;SDS011;29744;49.078;12.878;2023-11-21T10:46:59;3.08;;;1.30;;
44078;SDS011;29744;49.078;12.878;2023-11-21T10:52:01;3.33;;;1.30;;
44078;SDS011;29744;49.078;12.878;2023-11-21T10:57:01;2.75;;;1.15;;
44078;SDS011;29744;49.078;12.878;2023-11-21T11:02:08;2.13;;;1.30;;
44078;SDS011;29744;49.078;12.878;2023-11-21T11:07:34;2.63;;;1.20;;
44078;SDS011;29744;49.078;12.878;2023-11-21T11:12:36;2.28;;;1.20;;
44078;SDS011;29744;49.078;12.878;2023-11-21T11:17:37;1.92;;;0.98;;
44078;SDS011;29744;49.078;12.878;2023-11-21T11:22:59;2.05;;;1.08;;
44078;SDS011;29744;49.078;12.878;2023-11-21T11:28:18;2.20;;;1.00;;
44078;SDS011;29744;49.078;12.878;2023-11-21T11:33:27;2.40;;;1.10;;
44078;SDS011;29744;49.078;12.878;2023-11-21T11:38:45;1.45;;;0.90;;
44078;SDS011;29744;49.078;12.878;2023-11-21T11:43:46;2.20;;;1.10;;
44078;SDS011;29744;49.078;12.878;2023-11-21T11:48:47;1.90;;;1.00;;
44078;SDS011;29744;49.078;12.878;2023-11-21T11:53:48;2.80;;;1.10;;
44078;SDS011;29744;49.078;12.878;2023-11-21T11:58:49;1.95;;;1.05;;
44078;SDS011;29744;49.078;12.878;2023-11-21T12:09:21;2.28;;;0.90;;
44078;SDS011;29744;49.078;12.878;2023-11-21T12:14:22;1.63;;;0.98;;
44078;SDS011;29744;49.078;12.878;2023-11-21T12:19:23;2.58;;;1.00;;
44078;SDS011;29744;49.078;12.878;2023-11-21T12:24:23;1.30;;;0.80;;
44078;SDS011;29744;49.078;12.878;2023-11-21T12:29:24;1.33;;;0.80;;
44078;SDS011;29744;49.078;12.878;2023-11-21T12:34:24;1.42;;;0.80;;
44078;SDS011;29744;49.078;12.878;2023-11-21T12:39:24;1.42;;;0.82;;
44078;SDS011;29744;49.078;12.878;2023-11-21T12:44:25;2.00;;;0.80;;
44078;SDS011;29744;49.078;12.878;2023-11-21T12:49:25;1.33;;;0.80;;
44078;SDS011;29744;49.078;12.878;2023-11-21T12:54:25;2.45;;;1.00;;
44078;SDS011;29744;49.078;12.878;2023-11-21T12:59:26;1.50;;;0.80;;
44078;SDS011;29744;49.078;12.878;2023-11-21T13:04:30;1.58;;;0.90;;
44078;SDS011;29744;49.078;12.878;2023-11-21T13:09:31;1.77;;;0.95;;
44078;SDS011;29744;49.078;12.878;2023-11-21T13:14:32;2.50;;;0.80;;
44078;SDS011;29744;49.078;12.878;2023-11-21T13:19:34;1.92;;;0.70;;
44078;SDS011;29744;49.078;12.878;2023-11-21T13:24:34;1.70;;;0.73;;
44078;SDS011;29744;49.078;12.878;2023-11-21T13:29:35;1.42;;;0.77;;
44078;SDS011;29744;49.078;12.878;2023-11-21T13:34:35;1.52;;;0.70;;
44078;SDS011;29744;49.078;12.878;2023-11-21T13:39:36;1.25;;;0.70;;
44078;SDS011;29744;49.078;12.878;2023-11-21T13:44:38;1.50;;;0.90;;
44078;SDS011;29744;49.078;12.878;2023-11-21T13:49:44;1.27;;;0.68;;
44078;SDS011;29744;49.078;12.878;2023-11-21T13:54:44;1.10;;;0.80;;
44078;SDS011;29744;49.078;12.878;2023-11-21T13:59:44;0.95;;;0.68;;
44078;SDS011;29744;49.078;12.878;2023-11-21T14:04:45;1.10;;;0.77;;
44078;SDS011;29744;49.078;12.878;2023-11-21T14:09:56;1.20;;;0.70;;
44078;SDS011;29744;49.078;12.878;2023-11-21T14:14:56;1.00;;;0.77;;
44078;SDS011;29744;49.078;12.878;2023-11-21T14:19:56;2.08;;;0.80;;
44078;SDS011;29744;49.078;12.878;2023-11-21T14:24:57;1.92;;;0.98;;
44078;SDS011;29744;49.078;12.878;2023-11-21T14:29:59;1.58;;;0.80;;
44078;SDS011;29744;49.078;12.878;2023-11-21T14:35:00;1.38;;;0.70;;
44078;SDS011;29744;49.078;12.878;2023-11-21T14:40:00;0.98;;;0.65;;
44078;SDS011;29744;49.078;12.878;2023-11-21T14:45:00;2.40;;;0.90;;
44078;SDS011;29744;49.078;12.878;2023-11-21T14:50:06;0.70;;;0.65;;
44078;SDS011;29744;49.078;12.878;2023-11-21T14:55:26;1.23;;;0.70;;
44078;SDS011;29744;49.078;12.878;2023-11-21T15:00:32;1.27;;;0.70;;
44078;SDS011;29744;49.078;12.878;2023-11-21T15:05:35;0.88;;;0.60;;
44078;SDS011;29744;49.078;12.878;2023-11-21T15:10:36;1.58;;;0.88;;
44078;SDS011;29744;49.078;12.878;2023-11-21T15:15:46;1.02;;;0.50;;
44078;SDS011;29744;49.078;12.878;2023-11-21T15:20:46;1.60;;;0.80;;
44078;SDS011;29744;49.078;12.878;2023-11-21T15:25:47;0.88;;;0.52;;
44078;SDS011;29744;49.078;12.878;2023-11-21T15:30:47;1.13;;;0.70;;
44078;SDS011;29744;49.078;12.878;2023-11-21T15:35:51;1.13;;;0.75;;
44078;SDS011;29744;49.078;12.878;2023-11-21T15:40:51;0.73;;;0.60;;
44078;SDS011;29744;49.078;12.878;2023-11-21T15:45:51;1.45;;;0.70;;
44078;SDS011;29744;49.078;12.878;2023-11-21T15:50:52;1.38;;;0.70;;
44078;SDS011;29744;49.078;12.878;2023-11-21T15:55:57;0.80;;;0.60;;
44078;SDS011;29744;49.078;12.878;2023-11-21T16:00:57;1.20;;;0.60;;
44078;SDS011;29744;49.078;12.878;2023-11-21T16:05:57;1.27;;;0.68;;
44078;SDS011;29744;49.078;12.878;2023-11-21T16:10:58;1.35;;;0.80;;
44078;SDS011;29744;49.078;12.878;2023-11-21T16:16:00;1.15;;;0.65;;
44078;SDS011;29744;49.078;12.878;2023-11-21T16:21:01;0.77;;;0.50;;
44078;SDS011;29744;49.078;12.878;2023-11-21T16:26:01;0.70;;;0.70;;
44078;SDS011;29744;49.078;12.878;2023-11-21T16:31:02;0.68;;;0.55;;
44078;SDS011;29744;49.078;12.878;2023-11-21T16:36:02;0.60;;;0.60;;
44078;SDS011;29744;49.078;12.878;2023-11-21T16:41:03;1.00;;;0.60;;
44078;SDS011;29744;49.078;12.878;2023-11-21T16:46:06;1.02;;;0.60;;
44078;SDS011;29744;49.078;12.878;2023-11-21T16:51:08;1.50;;;0.70;;
44078;SDS011;29744;49.078;12.878;2023-11-21T16:56:11;1.20;;;0.50;;
44078;SDS011;29744;49.078;12.878;2023-11-21T17:01:11;1.17;;;0.77;;
44078;SDS011;29744;49.078;12.878;2023-11-21T17:06:12;0.82;;;0.60;;
44078;SDS011;29744;49.078;12.878;2023-11-21T17:11:13;0.77;;;0.60;;
44078;SDS011;29744;49.078;12.878;2023-11-21T17:16:13;1.38;;;0.80;;
44078;SDS011;29744;49.078;12.878;2023-11-21T17:21:14;1.23;;;0.70;;
44078;SDS011;29744;49.078;12.878;2023-11-21T17:26:16;1.20;;;0.50;;
44078;SDS011;29744;49.078;12.878;2023-11-21T17:31:17;1.17;;;0.60;;
44078;SDS011;29744;49.078;12.878;2023-11-21T17:36:17;1.42;;;0.70;;
44078;SDS011;29744;49.078;12.878;2023-11-21T17:41:19;0.90;;;0.70;;
44078;SDS011;29744;49.078;12.878;2023-11-21T17:46:21;0.80;;;0.50;;
44078;SDS011;29744;49.078;12.878;2023-11-21T17:51:22;1.10;;;0.60;;
44078;SDS011;29744;49.078;12.878;2023-11-21T17:56:22;0.77;;;0.57;;
44078;SDS011;29744;49.078;12.878;2023-11-21T18:01:23;1.00;;;0.60;;
44078;SDS011;29744;49.078;12.878;2023-11-21T18:06:30;0.60;;;0.50;;
44078;SDS011;29744;49.078;12.878;2023-11-21T18:11:30;0.75;;;0.52;;
44078;SDS011;29744;49.078;12.878;2023-11-21T18:16:31;0.93;;;0.60;;
44078;SDS011;29744;49.078;12.878;2023-11-21T18:21:31;0.68;;;0.50;;
44078;SDS011;29744;49.078;12.878;2023-11-21T18:26:32;1.17;;;0.60;;
44078;SDS011;29744;49.078;12.878;2023-11-21T18:31:32;0.75;;;0.50;;
44078;SDS011;29744;49.078;12.878;2023-11-21T18:36:33;0.93;;;0.50;;
44078;SDS011;29744;49.078;12.878;2023-11-21T18:41:33;0.82;;;0.60;;
44078;SDS011;29744;49.078;12.878;2023-11-21T18:46:40;0.70;;;0.65;;
44078;SDS011;29744;49.078;12.878;2023-11-21T18:51:44;0.50;;;0.50;;
44078;SDS011;29744;49.078;12.878;2023-11-21T18:56:45;0.85;;;0.60;;
44078;SDS011;29744;49.078;12.878;2023-11-21T19:01:45;0.82;;;0.50;;
44078;SDS011;29744;49.078;12.878;2023-11-21T19:06:46;0.95;;;0.60;;
44078;SDS011;29744;49.078;12.878;2023-11-21T19:11:47;0.98;;;0.40;;
44078;SDS011;29744;49.078;12.878;2023-11-21T19:16:47;0.35;;;0.30;;
44078;SDS011;29744;49.078;12.878;2023-11-21T19:21:48;0.93;;;0.68;;
44078;SDS011;29744;49.078;12.878;2023-11-21T19:26:49;0.70;;;0.50;;
44078;SDS011;29744;49.078;12.878;2023-11-21T19:31:49;0.93;;;0.60;;
44078;SDS011;29744;49.078;12.878;2023-11-21T19:36:49;0.80;;;0.47;;
44078;SDS011;29744;49.078;12.878;2023-11-21T19:41:51;0.82;;;0.60;;
44078;SDS011;29744;49.078;12.878;2023-11-21T19:46:52;0.77;;;0.55;;
44078;SDS011;29744;49.078;12.878;2023-11-21T19:51:52;0.70;;;0.50;;
44078;SDS011;29744;49.078;12.878;2023-11-21T19:56:52;1.00;;;0.60;;
44078;SDS011;29744;49.078;12.878;2023-11-21T20:01:53;0.93;;;0.57;;
44078;SDS011;29744;49.078;12.878;2023-11-21T20:06:53;0.63;;;0.50;;
44078;SDS011;29744;49.078;12.878;2023-11-21T20:11:56;1.05;;;0.60;;
44078;SDS011;29744;49.078;12.878;2023-11-21T20:16:58;0.65;;;0.50;;
44078;SDS011;29744;49.078;12.878;2023-11-21T20:21:59;0.50;;;0.50;;
44078;SDS011;29744;49.078;12.878;2023-11-21T20:26:59;0.70;;;0.40;;
44078;SDS011;29744;49.078;12.878;2023-11-21T20:32:02;0.70;;;0.40;;
44078;SDS011;29744;49.078;12.878;2023-11-21T20:37:05;0.77;;;0.57;;
44078;SDS011;29744;49.078;12.878;2023-11-21T20:42:06;0.55;;;0.50;;
44078;SDS011;29744;49.078;12.878;2023-11-21T20:47:06;0.82;;;0.50;;
44078;SDS011;29744;49.078;12.878;2023-11-21T20:52:06;0.80;;;0.50;;
44078;SDS011;29744;49.078;12.878;2023-11-21T20:57:07;1.10;;;0.65;;
44078;SDS011;29744;49.078;12.878;2023-11-21T21:02:09;0.82;;;0.50;;
44078;SDS011;29744;49.078;12.878;2023-11-21T21:07:10;0.90;;;0.50;;
44078;SDS011;29744;49.078;12.878;2023-11-21T21:12:10;0.68;;;0.50;;
44078;SDS011;29744;49.078;12.878;2023-11-21T21:17:11;0.45;;;0.40;;
44078;SDS011;29744;49.078;12.878;2023-11-21T21:22:11;0.73;;;0.50;;
44078;SDS011;29744;49.078;12.878;2023-11-21T21:27:12;0.75;;;0.45;;
44078;SDS011;29744;49.078;12.878;2023-11-21T21:32:12;0.93;;;0.63;;
44078;SDS011;29744;49.078;12.878;2023-11-21T21:37:13;1.15;;;0.70;;
44078;SDS011;29744;49.078;12.878;2023-11-21T21:42:13;1.48;;;0.50;;
44078;SDS011;29744;49.078;12.878;2023-11-21T21:47:14;0.57;;;0.57;;
44078;SDS011;29744;49.078;12.878;2023-11-21T21:52:14;0.57;;;0.50;;
44078;SDS011;29744;49.078;12.878;2023-11-21T21:57:14;1.05;;;0.60;;
44078;SDS011;29744;49.078;12.878;2023-11-21T22:02:15;0.70;;;0.47;;
44078;SDS011;29744;49.078;12.878;2023-11-21T22:07:15;0.80;;;0.50;;
44078;SDS011;29744;49.078;12.878;2023-11-21T22:12:15;0.50;;;0.50;;
44078;SDS011;29744;49.078;12.878;2023-11-21T22:17:15;0.47;;;0.40;;
44078;SDS011;29744;49.078;12.878;2023-11-21T22:22:16;0.70;;;0.60;;
44078;SDS011;29744;49.078;12.878;2023-11-21T22:27:17;0.50;;;0.45;;
44078;SDS011;29744;49.078;12.878;2023-11-21T22:32:18;0.50;;;0.50;;
44078;SDS011;29744;49.078;12.878;2023-11-21T22:37:19;0.55;;;0.40;;
44078;SDS011;29744;49.078;12.878;2023-11-21T22:42:19;0.47;;;0.40;;
44078;SDS011;29744;49.078;12.878;2023-11-21T22:47:20;0.47;;;0.47;;
44078;SDS011;29744;49.078;12.878;2023-11-21T22:52:21;0.40;;;0.35;;
44078;SDS011;29744;49.078;12.878;2023-11-21T22:57:23;0.55;;;0.40;;
44078;SDS011;29744;49.078;12.878;2023-11-21T23:02:23;0.60;;;0.50;;
44078;SDS011;29744;49.078;12.878;2023-11-21T23:07:24;0.50;;;0.40;;
44078;SDS011;29744;49.078;12.878;2023-11-21T23:12:24;0.77;;;0.40;;
44078;SDS011;29744;49.078;12.878;2023-11-21T23:17:25;0.68;;;0.50;;
44078;SDS011;29744;49.078;12.878;2023-11-21T23:22:27;0.85;;;0.47;;
44078;SDS011;29744;49.078;12.878;2023-11-21T23:27:28;0.60;;;0.47;;
44078;SDS011;29744;49.078;12.878;2023-11-21T23:32:28;0.40;;;0.40;;
44078;SDS011;29744;49.078;12.878;2023-11-21T23:37:28;0.60;;;0.40;;
44078;SDS011;29744;49.078;12.878;2023-11-21T23:42:29;0.40;;;0.40;;
44078;SDS011;29744;49.078;12.878;2023-11-21T23:47:29;0.32;;;0.30;;
44078;SDS011;29744;49.078;12.878;2023-11-21T23:52:29;0.60;;;0.40;;
44078;SDS011;29744;49.078;12.878;2023-11-21T23:57:30;0.85;;;0.43;;
